Time;durP1;ratioP1;P1;durP2;ratioP2;P2;SDS_P1;SDS_P2;PMS_P1;PMS_P2;Temp;Humidity;BMP_temperature;BMP_pressure;BME280_temperature;BME280_humidity;BME280_pressure;Samples;Min_cycle;Max_cycle;Signal;HPM_P1;HPM_P2
2021/06/03 00:02:10;;;;;;;2.45;1.55;;;;;;;32.48;37.45;159720.55;1754401;82;21740;-77
2021/06/03 00:04:42;;;;;;;2.87;1.50;;;;;;;32.44;37.46;159711.22;1754311;82;21350;-77
2021/06/03 00:07:15;;;;;;;2.22;1.98;;;;;;;32.47;37.40;159719.25;1754365;82;21304;-77
2021/06/03 00:09:47;;;;;;;4.72;1.90;;;;;;;32.50;37.28;159727.25;1754469;82;21319;-77
2021/06/03 00:12:20;;;;;;;2.40;1.65;;;;;;;32.54;37.20;159736.59;1754322;82;21393;-77
2021/06/03 00:14:53;;;;;;;2.85;1.75;;;;;;;32.50;37.10;159727.25;1754368;82;21263;-76
2021/06/03 00:17:25;;;;;;;4.80;1.90;;;;;;;32.87;36.84;159826.05;1754212;82;21963;-76
2021/06/03 00:19:59;;;;;;;2.70;1.60;;;;;;;33.05;36.50;159872.78;1738298;82;21175;-76
2021/06/03 00:22:32;;;;;;;4.05;1.72;;;;;;;33.00;36.55;159860.77;1737536;81;21202;-77
2021/06/03 00:25:06;;;;;;;2.83;1.67;;;;;;;32.52;36.92;159732.56;1746278;81;21158;-77
2021/06/03 00:27:39;;;;;;;2.15;1.60;;;;;;;32.47;37.00;159717.88;1791586;80;21200;-77
2021/06/03 00:30:12;;;;;;;4.55;1.60;;;;;;;32.48;36.99;159720.55;1788933;79;21853;-76
2021/06/03 00:32:44;;;;;;;3.33;1.50;;;;;;;32.49;36.97;159724.59;1788610;79;21338;-76
2021/06/03 00:35:16;;;;;;;4.65;1.47;;;;;;;32.47;36.92;159719.25;1788593;79;21152;-76
2021/06/03 00:37:49;;;;;;;4.72;3.00;;;;;;;32.40;36.95;159700.58;1806469;79;21319;-76
2021/06/03 00:40:22;;;;;;;1.90;1.55;;;;;;;32.46;36.89;159716.56;1807442;79;21215;-76
2021/06/03 00:42:55;;;;;;;2.80;1.77;;;;;;;32.42;36.90;159705.88;1794186;79;21188;-76
2021/06/03 00:45:32;;;;;;;1.40;1.30;;;;;;;32.41;36.82;159703.19;1792756;79;21310;-76
2021/06/03 00:48:06;;;;;;;1.67;1.40;;;;;;;32.36;36.90;159688.52;1805965;79;21188;-77
2021/06/03 00:50:42;;;;;;;2.08;1.30;;;;;;;32.35;36.88;159687.20;1793613;79;21213;-76
2021/06/03 00:53:15;;;;;;;2.58;1.57;;;;;;;32.37;36.84;159692.56;1789940;79;21134;-76
2021/06/03 00:55:52;;;;;;;2.20;1.42;;;;;;;32.43;36.79;159708.55;1793668;79;21140;-77
2021/06/03 00:58:27;;;;;;;1.67;1.55;;;;;;;32.41;36.76;159701.89;1797811;79;21211;-76
2021/06/03 01:01:01;;;;;;;4.40;1.45;;;;;;;32.40;36.73;159699.22;1803652;79;21802;-76
2021/06/03 01:03:33;;;;;;;3.37;1.45;;;;;;;32.36;36.74;159689.87;1807287;79;21215;-77
2021/06/03 01:06:09;;;;;;;1.92;1.50;;;;;;;32.42;36.68;159704.56;1807250;79;21417;-77
2021/06/03 01:08:56;;;;;;;2.25;1.55;;;;;;;32.36;36.74;159688.52;1806230;79;21361;-77
2021/06/03 01:11:50;;;;;;;1.62;1.50;;;;;;;32.31;36.81;159676.52;1783337;79;21172;-77
2021/06/03 01:14:30;;;;;;;4.78;1.70;;;;;;;32.33;36.73;159681.86;1792763;79;21343;-76
2021/06/03 01:17:04;;;;;;;2.92;1.70;;;;;;;32.25;36.78;159660.53;1806878;79;21323;-76
2021/06/03 01:20:01;;;;;;;2.75;1.47;;;;;;;32.28;36.77;159667.19;1791122;79;21323;-77
2021/06/03 01:22:59;;;;;;;3.00;1.70;;;;;;;32.12;36.94;159624.47;1787846;79;21256;-77
2021/06/03 01:25:33;;;;;;;2.30;1.55;;;;;;;32.11;36.97;159620.48;1780989;80;21350;-76
2021/06/03 01:28:06;;;;;;;1.98;1.57;;;;;;;32.06;36.99;159608.44;1788349;80;21849;-77
2021/06/03 01:30:55;;;;;;;5.17;2.42;;;;;;;32.11;36.95;159620.48;1756122;80;21334;-77
2021/06/03 01:33:30;;;;;;;5.33;1.50;;;;;;;32.10;36.90;159617.81;1741886;81;21358;-77
2021/06/03 01:36:06;;;;;;;2.60;1.70;;;;;;;32.08;36.85;159612.41;1739208;81;21854;-77
2021/06/03 01:38:41;;;;;;;2.05;1.50;;;;;;;32.02;36.94;159596.42;1738945;82;21193;-76
2021/06/03 01:41:15;;;;;;;3.55;1.47;;;;;;;32.01;36.92;159593.75;1739224;81;21177;-77
2021/06/03 01:43:48;;;;;;;2.30;1.47;;;;;;;32.00;36.93;159592.39;1748597;81;21186;-76
2021/06/03 01:46:21;;;;;;;2.58;1.47;;;;;;;32.02;36.89;159597.73;1736816;82;21201;-76
2021/06/03 01:48:56;;;;;;;2.58;1.65;;;;;;;32.02;36.86;159596.42;1769521;81;21362;-76
2021/06/03 01:51:30;;;;;;;1.77;1.35;;;;;;;32.01;36.85;159595.06;1747597;81;21164;-77
2021/06/03 01:54:02;;;;;;;4.90;1.70;;;;;;;32.03;36.81;159599.09;1744955;81;21398;-76
2021/06/03 01:56:37;;;;;;;3.33;1.55;;;;;;;32.05;36.73;159605.75;1754908;81;21251;-77
2021/06/03 01:59:11;;;;;;;3.30;1.70;;;;;;;32.03;36.75;159600.41;1762475;81;21350;-77
2021/06/03 02:01:45;;;;;;;2.17;1.77;;;;;;;32.01;36.69;159593.75;1747029;81;21266;-76
2021/06/03 02:04:18;;;;;;;2.25;1.50;;;;;;;31.99;36.69;159588.41;1723430;81;21675;-76
2021/06/03 02:06:52;;;;;;;2.70;1.50;;;;;;;31.95;36.69;159579.08;1735249;81;21172;-76
2021/06/03 02:09:27;;;;;;;3.37;1.75;;;;;;;31.97;36.64;159584.44;1730499;82;21228;-76
2021/06/03 02:12:01;;;;;;;2.05;1.50;;;;;;;31.94;36.64;159575.09;1733746;82;21264;-77
2021/06/03 02:14:40;;;;;;;2.25;1.40;;;;;;;31.87;36.71;159556.39;1731537;81;21189;-75
2021/06/03 02:17:24;;;;;;;2.25;1.35;;;;;;;31.95;36.61;159577.72;1731368;82;21216;-74
2021/06/03 02:20:14;;;;;;;2.27;1.40;;;;;;;31.95;36.57;159579.08;1769940;80;21305;-74
2021/06/03 02:22:49;;;;;;;3.33;1.70;;;;;;;31.97;36.45;159583.06;1778779;79;21332;-74
2021/06/03 02:25:26;;;;;;;4.05;1.85;;;;;;;31.70;36.72;159511.06;1765532;79;21211;-74
2021/06/03 02:27:59;;;;;;;3.45;1.67;;;;;;;31.65;36.77;159499.06;1751699;80;21291;-74
2021/06/03 02:30:33;;;;;;;3.80;1.55;;;;;;;31.60;36.83;159484.34;1726637;81;21772;-74
2021/06/03 02:33:06;;;;;;;2.52;1.57;;;;;;;31.62;36.85;159489.69;1752981;81;21235;-74
2021/06/03 02:35:40;;;;;;;4.45;1.70;;;;;;;31.76;36.76;159527.05;1754126;81;21665;-74
2021/06/03 02:38:15;;;;;;;3.05;1.80;;;;;;;31.85;36.60;159551.05;1754380;81;21372;-74
2021/06/03 02:40:47;;;;;;;3.22;1.60;;;;;;;31.89;36.50;159563.05;1754255;81;21890;-74
2021/06/03 02:43:21;;;;;;;2.37;1.70;;;;;;;31.90;36.50;159564.41;1721081;83;21371;-74
2021/06/03 02:45:54;;;;;;;2.50;1.35;;;;;;;31.91;36.51;159568.39;1742596;82;21815;-75
2021/06/03 02:48:27;;;;;;;1.87;1.47;;;;;;;31.87;36.47;159556.39;1751852;82;21200;-74
2021/06/03 02:51:01;;;;;;;3.98;1.72;;;;;;;31.89;36.47;159561.73;1748901;82;21320;-74
2021/06/03 02:53:35;;;;;;;4.15;1.65;;;;;;;31.89;36.46;159561.73;1747192;82;21164;-74
2021/06/03 02:56:08;;;;;;;2.60;1.47;;;;;;;31.89;36.49;159563.05;1747751;82;21185;-74
2021/06/03 02:58:42;;;;;;;2.70;1.72;;;;;;;31.89;36.46;159561.73;1722143;83;21394;-74
2021/06/03 03:01:15;;;;;;;4.05;1.42;;;;;;;31.87;36.52;159556.39;1729187;83;21684;-75
2021/06/03 03:03:49;;;;;;;2.05;1.60;;;;;;;31.92;36.46;159569.75;1729488;83;21720;-74
2021/06/03 03:06:23;;;;;;;3.75;1.90;;;;;;;31.92;36.47;159571.06;1739103;80;21237;-74
2021/06/03 03:08:55;;;;;;;2.42;1.22;;;;;;;31.94;36.47;159576.41;1747884;81;21815;-74
2021/06/03 03:11:28;;;;;;;2.90;1.40;;;;;;;31.94;36.47;159575.09;1728960;83;21177;-74
2021/06/03 03:14:00;;;;;;;3.98;1.45;;;;;;;31.96;36.45;159580.39;1737708;82;21271;-74
2021/06/03 03:16:33;;;;;;;1.85;1.50;;;;;;;31.96;36.44;159580.39;1738189;82;21826;-73
2021/06/03 03:19:08;;;;;;;2.58;1.62;;;;;;;31.98;36.43;159587.09;1737967;82;21267;-73
2021/06/03 03:21:41;;;;;;;1.45;1.35;;;;;;;31.98;36.41;159585.73;1737853;81;21695;-75
2021/06/03 03:24:13;;;;;;;2.15;1.20;;;;;;;31.99;36.45;159588.41;1737785;82;21329;-74
2021/06/03 03:26:47;;;;;;;1.65;1.42;;;;;;;32.01;36.43;159593.75;1756312;80;21403;-74
2021/06/03 03:29:20;;;;;;;1.95;1.70;;;;;;;32.02;36.42;159596.42;1748619;80;21231;-76
2021/06/03 03:31:53;;;;;;;3.22;1.62;;;;;;;32.01;36.47;159595.06;1723599;81;21333;-74
2021/06/03 03:34:28;;;;;;;4.67;1.50;;;;;;;32.03;36.43;159600.41;1725870;80;22214;-76
2021/06/03 03:37:00;;;;;;;3.65;1.37;;;;;;;32.07;36.40;159609.75;1729514;80;21244;-76
2021/06/03 03:39:36;;;;;;;1.95;1.67;;;;;;;32.12;36.39;159623.16;1752316;79;21838;-76
2021/06/03 03:42:09;;;;;;;3.55;1.72;;;;;;;32.11;36.33;159620.48;1730755;80;21163;-75
2021/06/03 03:44:44;;;;;;;4.30;2.20;;;;;;;32.14;36.34;159628.50;1726143;81;21316;-76
2021/06/03 03:47:23;;;;;;;4.08;1.70;;;;;;;32.13;36.30;159625.83;1717770;81;21301;-77
2021/06/03 03:49:56;;;;;;;3.85;1.40;;;;;;;32.16;36.30;159633.84;1716322;81;21708;-79
2021/06/03 03:52:30;;;;;;;2.20;1.55;;;;;;;32.17;36.29;159636.53;1714788;81;21235;-79
2021/06/03 03:55:07;;;;;;;2.52;1.70;;;;;;;32.11;36.38;159620.48;1717323;81;21205;-80
2021/06/03 03:57:40;;;;;;;3.50;1.47;;;;;;;32.10;36.41;159619.17;1718174;81;21234;-78
2021/06/03 04:00:20;;;;;;;4.95;1.90;;;;;;;32.17;36.35;159636.53;1715271;81;21297;-77
2021/06/03 04:02:55;;;;;;;2.27;1.50;;;;;;;32.15;36.37;159632.48;1716674;81;21313;-79
2021/06/03 04:05:32;;;;;;;1.87;1.57;;;;;;;32.16;36.37;159635.16;1712456;81;21201;-78
2021/06/03 04:08:06;;;;;;;1.92;1.60;;;;;;;32.21;36.36;159647.16;1717164;82;21214;-78
2021/06/03 04:10:39;;;;;;;2.80;1.55;;;;;;;32.17;36.40;159636.53;1734012;81;21388;-77
2021/06/03 04:13:12;;;;;;;6.05;1.80;;;;;;;32.16;36.45;159635.16;1733173;81;21203;-77
2021/06/03 04:15:47;;;;;;;2.08;1.40;;;;;;;32.20;36.43;159644.48;1739299;82;21336;-77
2021/06/03 04:18:21;;;;;;;3.02;1.55;;;;;;;32.23;36.42;159653.88;1738568;81;21444;-77
2021/06/03 04:20:54;;;;;;;5.35;1.45;;;;;;;32.26;36.43;159663.20;1721763;82;21701;-75
2021/06/03 04:23:27;;;;;;;4.45;1.52;;;;;;;32.30;36.38;159673.84;1720800;82;21788;-76
2021/06/03 04:26:01;;;;;;;2.52;1.50;;;;;;;32.31;36.43;159676.52;1729995;82;21720;-75
2021/06/03 04:28:33;;;;;;;2.25;1.40;;;;;;;32.27;36.52;159665.88;1728168;81;21288;-76
2021/06/03 04:31:06;;;;;;;1.65;1.40;;;;;;;32.34;36.46;159684.53;1731219;81;21920;-75
2021/06/03 04:33:38;;;;;;;2.33;1.50;;;;;;;32.38;36.41;159693.88;1753301;80;21803;-75
2021/06/03 04:36:11;;;;;;;3.37;1.50;;;;;;;32.41;36.40;159703.19;1769074;81;21230;-75
2021/06/03 04:38:44;;;;;;;2.15;1.52;;;;;;;32.43;36.45;159707.23;1765067;81;21209;-75
2021/06/03 04:41:16;;;;;;;4.47;1.52;;;;;;;32.45;36.47;159712.59;1769151;81;21317;-75
2021/06/03 04:43:49;;;;;;;2.10;1.65;;;;;;;32.44;36.49;159709.91;1739205;82;21224;-75
2021/06/03 04:46:21;;;;;;;2.00;1.80;;;;;;;32.50;36.43;159727.25;1742222;81;21240;-74
2021/06/03 04:48:54;;;;;;;6.17;1.52;;;;;;;32.50;36.44;159727.25;1765269;79;21200;-76
2021/06/03 04:51:27;;;;;;;2.33;1.50;;;;;;;32.56;36.46;159741.94;1748270;80;21229;-76
2021/06/03 04:54:03;;;;;;;2.33;1.40;;;;;;;32.58;36.46;159748.59;1752173;80;21189;-76
2021/06/03 04:56:36;;;;;;;2.02;1.40;;;;;;;32.59;36.44;159749.91;1761927;79;21240;-77
2021/06/03 04:59:09;;;;;;;3.98;1.70;;;;;;;32.55;36.51;159740.58;1743430;80;21874;-79
2021/06/03 05:01:42;;;;;;;1.85;1.40;;;;;;;32.64;36.46;159763.33;1746437;81;21323;-78
2021/06/03 05:04:17;;;;;;;2.50;1.65;;;;;;;32.65;36.45;159766.00;1751128;80;21751;-78
2021/06/03 05:06:50;;;;;;;4.20;1.62;;;;;;;32.64;36.45;159763.33;1750433;80;21350;-79
2021/06/03 05:09:26;;;;;;;3.72;1.62;;;;;;;32.65;36.44;159766.00;1743366;80;21232;-79
2021/06/03 05:12:00;;;;;;;4.15;1.60;;;;;;;32.74;36.43;159791.39;1762982;79;21185;-80
2021/06/03 05:14:34;;;;;;;1.87;1.27;;;;;;;32.71;36.52;159783.36;1760974;79;21699;-78
2021/06/03 05:17:06;;;;;;;2.45;1.60;;;;;;;32.74;36.51;159791.39;1733319;81;21340;-77
2021/06/03 05:19:40;;;;;;;1.42;1.30;;;;;;;32.53;36.71;159735.23;1741999;81;21683;-78
2021/06/03 05:22:13;;;;;;;1.40;1.25;;;;;;;32.76;36.53;159795.37;1750351;79;21744;-76
2021/06/03 05:24:46;;;;;;;3.67;1.60;;;;;;;32.80;36.49;159806.06;1742371;81;21890;-77
2021/06/03 05:27:18;;;;;;;3.85;1.72;;;;;;;32.83;36.49;159814.03;1749212;80;21751;-77
2021/06/03 05:29:50;;;;;;;1.70;1.45;;;;;;;32.86;36.43;159823.42;1741841;80;21277;-78
2021/06/03 05:32:23;;;;;;;2.15;1.20;;;;;;;32.89;36.43;159831.39;1742516;80;21327;-78
2021/06/03 05:34:55;;;;;;;2.67;1.50;;;;;;;32.83;36.48;159814.03;1742236;80;21193;-79
2021/06/03 05:37:27;;;;;;;1.60;1.30;;;;;;;32.88;36.46;159827.41;1744851;80;21362;-77
2021/06/03 05:40:01;;;;;;;3.77;1.47;;;;;;;32.90;36.47;159832.75;1743676;80;21838;-79
2021/06/03 05:42:33;;;;;;;2.58;1.30;;;;;;;32.90;36.52;159834.06;1741476;80;21233;-77
2021/06/03 05:45:08;;;;;;;2.95;1.52;;;;;;;32.93;36.50;159842.09;1741815;80;21161;-79
2021/06/03 05:47:41;;;;;;;2.90;1.40;;;;;;;32.99;36.47;159858.09;1737079;80;21333;-77
2021/06/03 05:50:15;;;;;;;2.65;1.55;;;;;;;32.99;36.40;159858.09;1746328;80;21420;-79
2021/06/03 05:52:48;;;;;;;2.02;1.40;;;;;;;33.05;36.31;159872.78;1750402;80;21232;-78
2021/06/03 05:55:20;;;;;;;1.70;1.40;;;;;;;33.12;36.25;159891.55;1749389;80;21854;-78
2021/06/03 05:57:53;;;;;;;1.85;1.50;;;;;;;33.11;36.26;159890.19;1762134;79;21165;-78
2021/06/03 06:00:32;;;;;;;4.33;1.60;;;;;;;33.17;36.21;159904.88;1772302;79;21410;-78
2021/06/03 06:03:13;;;;;;;1.85;1.50;;;;;;;33.21;36.21;159918.25;1765092;79;21170;-78
2021/06/03 06:08:29;;;;;;;2.02;1.27;;;;;;;33.27;36.25;159932.94;1766185;79;21767;-77
2021/06/03 06:11:03;;;;;;;4.15;1.30;;;;;;;33.28;36.28;159936.92;1764214;79;21921;-78
2021/06/03 06:13:35;;;;;;;1.87;1.25;;;;;;;33.28;36.28;159936.92;1766451;79;21295;-78
2021/06/03 06:16:08;;;;;;;2.50;1.22;;;;;;;33.30;36.25;159942.27;1733950;80;21224;-77
2021/06/03 06:18:41;;;;;;;1.60;1.40;;;;;;;33.31;36.26;159943.62;1769729;80;21334;-78
2021/06/03 06:21:17;;;;;;;1.75;1.30;;;;;;;33.33;36.25;159950.30;1764754;79;21268;-79
2021/06/03 06:23:50;;;;;;;1.60;1.50;;;;;;;33.37;36.25;159959.62;1767947;79;21216;-79
2021/06/03 06:26:24;;;;;;;4.00;1.37;;;;;;;33.46;36.18;159983.66;1765110;79;21425;-78
2021/06/03 06:28:57;;;;;;;1.90;1.30;;;;;;;33.50;36.17;159994.36;1763737;79;21177;-79
2021/06/03 06:31:30;;;;;;;3.33;1.60;;;;;;;33.53;36.18;160003.70;1761485;79;21374;-77
2021/06/03 06:34:02;;;;;;;3.08;1.57;;;;;;;33.57;36.17;160014.41;1769786;79;21221;-79
2021/06/03 06:36:35;;;;;;;1.75;1.50;;;;;;;33.60;36.19;160022.48;1765537;79;21378;-77
2021/06/03 06:39:07;;;;;;;1.37;1.27;;;;;;;33.66;36.14;160037.17;1765639;79;22402;-77
2021/06/03 06:41:41;;;;;;;4.60;1.87;;;;;;;33.75;36.07;160062.52;1766921;79;21193;-77
2021/06/03 06:44:14;;;;;;;4.03;1.27;;;;;;;33.81;35.94;160077.22;1789103;79;21339;-77
2021/06/03 06:46:46;;;;;;;2.17;1.30;;;;;;;33.84;35.86;160085.23;1778860;80;21276;-77
2021/06/03 06:49:19;;;;;;;3.67;1.45;;;;;;;33.90;35.86;160101.30;1749684;80;21407;-76
2021/06/03 06:51:53;;;;;;;1.92;1.57;;;;;;;33.97;35.86;160121.28;1788711;80;21307;-74
2021/06/03 06:54:26;;;;;;;1.70;1.47;;;;;;;33.97;35.88;160121.28;1781296;79;21683;-74
2021/06/03 06:57:00;;;;;;;2.15;1.42;;;;;;;34.05;35.89;160142.70;1807002;79;21322;-74
2021/06/03 06:59:32;;;;;;;2.17;1.35;;;;;;;34.10;35.92;160156.08;1807449;79;21376;-75
2021/06/03 07:02:05;;;;;;;2.25;1.90;;;;;;;34.10;35.97;160154.78;1803423;79;21362;-75
2021/06/03 07:04:37;;;;;;;3.15;1.30;;;;;;;34.10;36.05;160154.78;1769197;79;21207;-74
2021/06/03 07:07:10;;;;;;;17.52;2.62;;;;;;;34.14;35.96;160168.09;1769669;81;21496;-74
2021/06/03 07:09:43;;;;;;;2.05;1.37;;;;;;;34.17;35.85;160174.83;1769688;81;21192;-74
2021/06/03 07:12:15;;;;;;;1.45;1.35;;;;;;;34.20;35.78;160184.16;1769800;81;21184;-74
2021/06/03 07:14:48;;;;;;;2.60;1.25;;;;;;;34.27;35.68;160201.55;1769727;81;21184;-74
2021/06/03 07:17:20;;;;;;;1.62;1.30;;;;;;;34.31;35.63;160213.56;1769638;81;21172;-74
2021/06/03 07:19:52;;;;;;;1.40;1.30;;;;;;;34.38;35.56;160230.94;1769868;81;21821;-76
2021/06/03 07:22:24;;;;;;;2.37;1.02;;;;;;;34.43;35.49;160244.31;1769863;81;21271;-76
2021/06/03 07:24:57;;;;;;;3.72;1.27;;;;;;;34.43;35.52;160245.63;1769736;81;21848;-76
2021/06/03 07:27:30;;;;;;;1.80;1.42;;;;;;;34.47;35.51;160256.34;1769667;81;21188;-76
2021/06/03 07:30:02;;;;;;;2.55;1.20;;;;;;;34.55;35.37;160276.34;1767194;81;21239;-76
2021/06/03 07:32:35;;;;;;;3.00;1.40;;;;;;;34.66;35.21;160305.84;1769743;81;21326;-76
2021/06/03 07:35:09;;;;;;;1.90;1.55;;;;;;;34.74;35.08;160328.53;1769717;81;21227;-76
2021/06/03 07:37:45;;;;;;;1.45;1.35;;;;;;;34.77;35.08;160336.56;1769932;80;21263;-76
2021/06/03 07:40:20;;;;;;;2.75;1.57;;;;;;;34.80;35.17;160344.61;1770371;81;21860;-76
2021/06/03 07:42:53;;;;;;;1.65;1.45;;;;;;;34.87;35.24;160361.98;1770449;81;21742;-76
2021/06/03 07:45:27;;;;;;;1.55;1.30;;;;;;;35.00;35.08;160396.75;1770177;81;21219;-76
2021/06/03 07:48:00;;;;;;;1.65;1.30;;;;;;;35.02;35.10;160403.42;1770268;80;21192;-76
2021/06/03 07:50:33;;;;;;;1.30;1.20;;;;;;;35.11;35.08;160426.22;1770139;81;21284;-76
2021/06/03 07:53:07;;;;;;;6.03;1.50;;;;;;;35.19;35.11;160448.91;1770281;80;21382;-76
2021/06/03 07:55:40;;;;;;;1.85;1.70;;;;;;;35.24;35.06;160462.30;1770483;81;21361;-76
2021/06/03 07:58:13;;;;;;;2.05;1.30;;;;;;;35.28;34.77;160473.00;1770340;81;21177;-77
2021/06/03 08:00:46;;;;;;;1.50;1.12;;;;;;;35.28;34.79;160474.33;1770206;81;21224;-76
2021/06/03 08:03:19;;;;;;;3.37;1.30;;;;;;;35.31;34.92;160481.00;1770528;81;21180;-76
2021/06/03 08:05:51;;;;;;;2.30;1.35;;;;;;;35.49;34.81;160530.48;1770722;81;21322;-76
2021/06/03 08:08:24;;;;;;;4.55;1.80;;;;;;;35.58;34.69;160553.28;1770305;79;21385;-76
2021/06/03 08:10:56;;;;;;;7.80;1.77;;;;;;;35.62;34.46;160564.00;1770536;81;21892;-77
2021/06/03 08:13:29;;;;;;;5.65;1.27;;;;;;;35.69;34.06;160584.06;1770360;81;21160;-76
2021/06/03 08:16:02;;;;;;;4.12;1.40;;;;;;;35.79;33.91;160609.45;1770347;81;21310;-76
2021/06/03 08:18:37;;;;;;;8.35;1.35;;;;;;;35.77;33.92;160605.45;1770295;81;21236;-76
2021/06/03 08:21:09;;;;;;;2.52;0.90;;;;;;;35.84;33.85;160622.84;1769764;81;21332;-76
2021/06/03 08:23:41;;;;;;;2.25;1.35;;;;;;;35.81;33.86;160614.81;1769809;81;21355;-76
2021/06/03 08:26:15;;;;;;;1.60;1.40;;;;;;;35.89;33.82;160636.19;1769920;81;21864;-76
2021/06/03 08:28:48;;;;;;;3.60;1.60;;;;;;;35.97;33.84;160657.62;1769783;81;21236;-76
2021/06/03 08:31:22;;;;;;;1.27;1.15;;;;;;;36.02;33.68;160671.03;1769848;81;21248;-76
2021/06/03 08:34:00;;;;;;;1.62;1.20;;;;;;;36.08;33.47;160687.13;1769759;81;21406;-76
2021/06/03 08:36:28;;;;;;;1.87;1.62;;;;;;;36.08;33.47;160689.80;1769994;81;21217;-76
2021/06/03 08:39:00;;;;;;;1.95;1.30;;;;;;;36.14;33.44;160705.83;1786233;80;21331;-76
2021/06/03 08:41:35;;;;;;;2.35;1.30;;;;;;;36.19;33.40;160717.86;1808087;79;21307;-77
2021/06/03 08:44:08;;;;;;;4.97;1.35;;;;;;;36.19;33.43;160719.23;1807793;79;21357;-77
2021/06/03 08:46:40;;;;;;;5.35;1.40;;;;;;;36.27;33.36;160739.31;1807816;79;21207;-76
2021/06/03 08:49:13;;;;;;;4.05;1.10;;;;;;;36.29;33.15;160744.63;1807890;79;21215;-77
2021/06/03 08:51:47;;;;;;;1.87;1.20;;;;;;;36.30;33.01;160747.30;1807965;79;21362;-76
2021/06/03 08:54:19;;;;;;;3.22;1.25;;;;;;;36.30;32.98;160748.67;1808002;78;21695;-76
2021/06/03 08:56:52;;;;;;;4.75;1.40;;;;;;;36.27;32.81;160739.31;1807836;79;21318;-76
2021/06/03 08:59:24;;;;;;;2.55;1.40;;;;;;;36.32;32.67;160752.66;1807764;79;21314;-77
2021/06/03 09:01:56;;;;;;;1.70;1.00;;;;;;;36.37;32.57;160767.38;1808042;79;21369;-77
2021/06/03 09:04:28;;;;;;;2.98;1.20;;;;;;;36.39;32.48;160772.75;1807938;79;21184;-76
2021/06/03 09:07:01;;;;;;;1.70;1.30;;;;;;;36.43;32.35;160782.09;1807998;79;21908;-76
2021/06/03 09:09:34;;;;;;;1.65;1.02;;;;;;;36.40;32.15;160775.42;1808106;79;21180;-76
2021/06/03 09:12:13;;;;;;;1.30;1.12;;;;;;;36.42;32.06;160780.78;1807800;79;21156;-77
2021/06/03 09:14:46;;;;;;;3.80;1.17;;;;;;;36.41;32.14;160778.09;1807857;79;21366;-77
2021/06/03 09:17:19;;;;;;;3.00;1.35;;;;;;;36.42;32.10;160779.41;1808005;79;21235;-76
2021/06/03 09:19:53;;;;;;;1.25;1.10;;;;;;;36.42;31.96;160780.78;1807801;79;21211;-77
2021/06/03 09:22:42;;;;;;;1.70;1.05;;;;;;;36.38;32.01;160770.06;1807992;79;21325;-77
2021/06/03 09:25:34;;;;;;;2.80;1.20;;;;;;;36.40;31.95;160775.42;1807814;79;21314;-76
2021/06/03 09:28:37;;;;;;;1.50;1.30;;;;;;;36.41;32.01;160776.73;1792071;79;21322;-77
2021/06/03 09:31:13;;;;;;;1.87;1.20;;;;;;;36.41;31.99;160778.09;1807871;79;21334;-76
2021/06/03 09:34:15;;;;;;;2.15;1.05;;;;;;;36.43;31.94;160782.09;1807902;79;21318;-76
2021/06/03 09:36:52;;;;;;;5.45;1.22;;;;;;;36.43;31.92;160783.47;1807926;79;21306;-76
2021/06/03 09:39:33;;;;;;;2.42;1.20;;;;;;;36.44;31.88;160786.19;1807576;79;21330;-76
2021/06/03 09:42:14;;;;;;;2.02;1.45;;;;;;;36.50;31.80;160802.23;1807523;79;21327;-77
2021/06/03 09:44:56;;;;;;;1.75;1.10;;;;;;;36.48;31.66;160795.56;1807758;79;21706;-76
2021/06/03 09:47:37;;;;;;;2.42;1.27;;;;;;;36.47;31.77;160792.88;1807495;79;21330;-77
2021/06/03 09:50:11;;;;;;;3.45;1.37;;;;;;;36.39;31.86;160771.44;1807953;79;21385;-77
2021/06/03 09:52:45;;;;;;;1.67;1.22;;;;;;;36.41;31.88;160778.09;1807489;79;21227;-76
2021/06/03 09:55:17;;;;;;;1.90;1.10;;;;;;;36.39;31.95;160771.44;1807255;79;21353;-76
2021/06/03 09:57:55;;;;;;;1.70;1.17;;;;;;;36.39;31.87;160771.44;1807706;79;21349;-76
2021/06/03 10:00:29;;;;;;;1.35;1.05;;;;;;;36.42;31.88;160780.78;1807470;79;21231;-76
2021/06/03 10:03:01;;;;;;;4.05;1.20;;;;;;;36.43;31.87;160782.09;1807561;79;21343;-76
2021/06/03 10:05:33;;;;;;;2.85;1.15;;;;;;;36.44;31.87;160786.19;1807554;79;21366;-76
2021/06/03 10:08:06;;;;;;;0.80;0.80;;;;;;;36.49;31.86;160799.55;1807478;79;21324;-77
2021/06/03 10:10:41;;;;;;;1.40;1.30;;;;;;;36.48;31.89;160796.88;1807528;79;21738;-77
2021/06/03 10:13:14;;;;;;;3.15;1.20;;;;;;;36.49;31.95;160799.55;1781603;79;21231;-76
2021/06/03 10:15:46;;;;;;;2.10;1.25;;;;;;;36.52;31.88;160807.59;1807837;79;21841;-76
2021/06/03 10:18:21;;;;;;;1.42;1.20;;;;;;;36.46;31.95;160791.50;1807462;79;21490;-76
2021/06/03 10:20:56;;;;;;;2.15;1.37;;;;;;;36.51;32.00;160804.91;1782051;79;22341;-76
2021/06/03 10:23:30;;;;;;;1.85;0.98;;;;;;;36.62;31.96;160834.34;1807552;79;21408;-76
2021/06/03 10:26:06;;;;;;;1.55;1.37;;;;;;;36.62;32.02;160833.03;1807442;79;21322;-76
2021/06/03 10:28:39;;;;;;;2.67;1.47;;;;;;;36.65;31.96;160842.39;1807243;79;21267;-76
2021/06/03 10:31:14;;;;;;;9.03;1.05;;;;;;;36.66;32.03;160845.08;1807479;79;21389;-76
2021/06/03 10:33:46;;;;;;;4.45;1.50;;;;;;;36.70;32.08;160855.75;1807738;79;21429;-76
2021/06/03 10:36:19;;;;;;;1.77;1.30;;;;;;;36.74;31.96;160866.48;1807490;79;21671;-76
2021/06/03 10:38:51;;;;;;;1.52;1.05;;;;;;;36.80;31.78;160881.20;1807732;79;21353;-77
2021/06/03 10:41:23;;;;;;;2.85;1.32;;;;;;;36.79;31.76;160879.87;1807608;79;21180;-77
2021/06/03 10:43:57;;;;;;;1.10;1.02;;;;;;;36.78;31.84;160877.20;1807740;79;21365;-77
2021/06/03 10:46:30;;;;;;;2.62;1.20;;;;;;;36.77;31.94;160874.52;1807796;79;21283;-76
2021/06/03 10:49:03;;;;;;;1.40;1.00;;;;;;;36.82;31.88;160886.56;1807824;79;21183;-77
2021/06/03 10:51:35;;;;;;;1.92;1.30;;;;;;;36.80;31.80;160882.56;1808141;79;21369;-76
2021/06/03 10:54:08;;;;;;;5.55;1.12;;;;;;;36.83;31.73;160890.56;1808069;79;21809;-77
2021/06/03 10:56:40;;;;;;;1.75;1.20;;;;;;;36.85;31.71;160894.61;1808281;79;21832;-76
2021/06/03 10:59:32;;;;;;;2.37;1.40;;;;;;;36.93;31.66;160916.06;1807739;79;21611;-76
2021/06/03 11:02:09;;;;;;;2.60;1.17;;;;;;;37.03;31.60;160944.20;1807728;79;21355;-77
2021/06/03 11:04:42;;;;;;;3.65;1.30;;;;;;;37.07;31.43;160956.25;1807850;79;21369;-77
2021/06/03 11:07:15;;;;;;;3.30;1.40;;;;;;;37.13;31.38;160970.97;1807951;79;21317;-77
2021/06/03 11:09:47;;;;;;;1.22;1.10;;;;;;;37.20;31.45;160991.06;1807737;79;21369;-76
2021/06/03 11:12:22;;;;;;;2.30;1.32;;;;;;;37.27;31.44;161008.41;1809645;79;21702;-76
2021/06/03 11:15:08;;;;;;;2.72;1.02;;;;;;;37.29;31.42;161015.14;1808049;79;21813;-77
2021/06/03 11:18:01;;;;;;;7.33;1.30;;;;;;;37.34;31.36;161028.56;1807762;79;21374;-77
2021/06/03 11:20:48;;;;;;;1.47;1.30;;;;;;;37.35;31.42;161031.25;1807690;79;21149;-76
2021/06/03 11:23:44;;;;;;;1.37;1.20;;;;;;;37.38;31.52;161037.97;1784211;79;21218;-76
2021/06/03 11:26:45;;;;;;;1.20;1.10;;;;;;;37.42;31.49;161048.66;1807767;79;21291;-77
2021/06/03 11:29:28;;;;;;;1.90;1.42;;;;;;;37.47;31.49;161062.06;1807969;79;21329;-77
2021/06/03 11:32:08;;;;;;;5.30;1.30;;;;;;;37.56;31.58;161086.16;1809801;79;21188;-77
2021/06/03 11:34:45;;;;;;;2.42;1.25;;;;;;;37.57;31.55;161090.16;1808046;79;21247;-76
2021/06/03 11:37:28;;;;;;;2.37;1.20;;;;;;;37.62;31.44;161103.56;1807983;79;21698;-76
2021/06/03 11:40:09;;;;;;;2.17;1.52;;;;;;;37.65;31.42;161110.25;1807951;79;21218;-76
2021/06/03 11:42:50;;;;;;;3.10;1.30;;;;;;;37.74;31.38;161134.34;1807519;79;21416;-77
2021/06/03 11:45:36;;;;;;;1.87;1.05;;;;;;;37.81;31.29;161154.50;1807624;79;21306;-77
2021/06/03 11:48:11;;;;;;;4.20;1.62;;;;;;;37.86;31.28;161166.55;1807520;79;21152;-77
2021/06/03 11:50:47;;;;;;;4.50;1.10;;;;;;;37.91;31.12;161179.97;1807579;79;21191;-76
2021/06/03 11:53:30;;;;;;;1.52;1.12;;;;;;;37.91;31.10;161179.97;1807577;79;21318;-76
2021/06/03 11:56:20;;;;;;;1.70;1.17;;;;;;;37.90;31.06;161177.28;1807762;79;21342;-76
2021/06/03 11:58:50;;;;;;;3.15;1.22;;;;;;;37.90;31.09;161178.66;1806400;79;21325;-76
2021/06/03 12:01:29;;;;;;;3.15;1.30;;;;;;;37.89;31.05;161174.59;1807566;79;21183;-76
2021/06/03 12:04:15;;;;;;;2.83;1.30;;;;;;;37.94;31.08;161189.34;1807584;79;21208;-76